Gardenia Ace — D5AG5 — position and weather

sailwx.info

Track history (hours):
 
Tides and Currents Weather Stations Pressure Air Temp Water Temp Dewpoint Dewpoint Depression Visibility Wind Speed Wind Dir Waves Ship Positions

Gardenia Ace

Last reported at 2017-Nov-10 13:01 UTC. Time now 2017-Nov-22 02:04 UTC.
Position N 34°50' E 140°04'.
Warning: this ship's position is 11 days out of date.

Length 180 m; draft 8.5 m.

Type: Cargo ship. MMSI: 636015370.

Date/timePositionNaut miles runAvg speedWind from/ knotsBaromVisibWave heightAir tempDewpointWater temp
2017-Nov-10 13:01N 34°50' E 140°04'020.7
2017-Nov-10 13:00N 34°50' E 140°04'1019.8
2017-Nov-10 12:30N 34°47' E 139°52'1019.7
2017-Nov-10 12:00N 34°43' E 139°41'  
2017-Nov-07 11:17N 34°59' E 139°39'517.6
2017-Nov-07 11:00N 35°04' E 139°41'714.0
2017-Nov-07 10:30N 35°10' E 139°44'510.3
2017-Nov-07 10:00N 35°15' E 139°46'713.2
2017-Nov-07 09:30N 35°21' E 139°42'713.1
2017-Nov-07 09:00N 35°27' E 139°43'2 3.4
2017-Nov-07 08:30N 35°28' E 139°41'0 0.0
2017-Nov-07 07:59N 35°28' E 139°41'0 0.0
2017-Nov-07 07:29N 35°28' E 139°41'0 0.0
2017-Nov-07 06:59N 35°28' E 139°41'0 0.0
2017-Nov-07 06:29N 35°28' E 139°41'0 0.0
2017-Nov-07 05:59N 35°28' E 139°41'0 0.0
2017-Nov-07 05:29N 35°28' E 139°41'0 0.0
2017-Nov-07 04:59N 35°28' E 139°41'0 0.0
2017-Nov-07 04:29N 35°28' E 139°41'0 0.0
2017-Nov-07 04:00N 35°28' E 139°41'0 0.4
2017-Nov-07 03:30N 35°28' E 139°41'2 3.5
2017-Nov-07 03:00N 35°27' E 139°43'1 2.8
2017-Nov-07 02:30N 35°26' E 139°44'5 9.3
2017-Nov-07 02:00N 35°22' E 139°45'611.5
2017-Nov-07 01:30N 35°16' E 139°46'611.9
2017-Nov-07 01:00N 35°10' E 139°47'3 6.6
2017-Nov-07 00:30N 35°07' E 139°46'711.7
2017-Nov-06 23:55N 35°01' E 139°43'  
Track history (hours):
 
Tides and Currents Weather Stations Pressure Air Temp Water Temp Dewpoint Dewpoint Depression Visibility Wind Speed Wind Dir Waves Ship Positions

Gardenia Ace

Last reported at 2017-Nov-10 13:01 UTC. Time now 2017-Nov-22 02:04 UTC.
Position N 34°50' E 140°04'.
Warning: this ship's position is 11 days out of date.

Length 180 m; draft 8.5 m.

Type: Cargo ship. MMSI: 636015370.

Date/timePositionNaut miles runAvg speedWind from/ knotsBaromVisibWave heightAir tempDewpointWater temp
2017-Nov-10 13:01N 34°50' E 140°04'020.7
2017-Nov-10 13:00N 34°50' E 140°04'1019.8
2017-Nov-10 12:30N 34°47' E 139°52'1019.7
2017-Nov-10 12:00N 34°43' E 139°41'  
2017-Nov-07 11:17N 34°59' E 139°39'517.6
2017-Nov-07 11:00N 35°04' E 139°41'714.0
2017-Nov-07 10:30N 35°10' E 139°44'510.3
2017-Nov-07 10:00N 35°15' E 139°46'713.2
2017-Nov-07 09:30N 35°21' E 139°42'713.1
2017-Nov-07 09:00N 35°27' E 139°43'2 3.4
2017-Nov-07 08:30N 35°28' E 139°41'0 0.0
2017-Nov-07 07:59N 35°28' E 139°41'0 0.0
2017-Nov-07 07:29N 35°28' E 139°41'0 0.0
2017-Nov-07 06:59N 35°28' E 139°41'0 0.0
2017-Nov-07 06:29N 35°28' E 139°41'0 0.0
2017-Nov-07 05:59N 35°28' E 139°41'0 0.0
2017-Nov-07 05:29N 35°28' E 139°41'0 0.0
2017-Nov-07 04:59N 35°28' E 139°41'0 0.0
2017-Nov-07 04:29N 35°28' E 139°41'0 0.0
2017-Nov-07 04:00N 35°28' E 139°41'0 0.4
2017-Nov-07 03:30N 35°28' E 139°41'2 3.5
2017-Nov-07 03:00N 35°27' E 139°43'1 2.8
2017-Nov-07 02:30N 35°26' E 139°44'5 9.3
2017-Nov-07 02:00N 35°22' E 139°45'611.5
2017-Nov-07 01:30N 35°16' E 139°46'611.9
2017-Nov-07 01:00N 35°10' E 139°47'3 6.6
2017-Nov-07 00:30N 35°07' E 139°46'711.7
2017-Nov-06 23:55N 35°01' E 139°43'  

Dump ship's entire track history